Dutch
Home     News     Corporate     Events & Tours     Flight ops     Crew centre      
My transavia virtual    Join us    Last logs    Who is flying    Software    Training    VRTS     
 

view flightdata
view flightplan
view OFP
view flightlog



flightdata:
pilot: Luis Ferraz
flight: TVF4606
from: LFRS (Nantes)
to: GMMX (Marrakech)
date: 26-12-2020
departure: 12:29z
arrival: 15:04z
duration: 2:33
aircraft: B738 (FGZHF)
distance: 1039 NM
touchdown: -176 ft/m @ 121 KIAS



flightplan:
-(FPL-TVF4606-IS
-B738/M-SDFGHIRWXY/LB1
-LFRS1233
-N0455F350 NORMI UN867 TEPRA UN873 DESAB UN867 NENEM/N0454F370 UP75 NEA UN864 PIMOS UN869 SLK UB11 PELAX UN869 MABAP
-GMMX0231 GMAD
-EET/LFFF0009 LECM0032 GMMM0139 PBN/A1B1D1O1S1 DOF/201226 REG/FGZHF SEL/BMEF CODE/4841A5 OPR/TVF RVR/200 RMK/TCAS CALLSIGN FRANCE SOLEIL)



operational flightplan (OFP):
DISPATCH BRIEFING (TEL:
--------- --------- --------- --------- --------- --------- ---------  
PREDEPARTURE ATC CLEARANCE:
.
.
--------- --------- --------- --------- --------- --------- ---------  
OFP  1    26 DEC 20/12:18
                                    OBS  2614

TVF4606    C/S TVF4606  LFRS/NTE   GMMX/RAK         CRZ SYS     CI 36
26 DEC 20  F-GZHF       1500/1500  1741/1746        GND DIST     1049
B737-800 CFTAB:.....    CTOT:....  STA  1745        AIR DIST     1049
                                                    AVG W/C         0
MAXIMUM    ZFW  61688  LAW  66360  TOW  78999       AVG ISA       M05
ESTIMATED  ZFW  60480  LAW  62933  TOW  69423       F-F FACTOR    0.0
ACTUAL     ZFW  .....  LAW  .....  TOW  .....
--------- --------- --------- --------- --------- --------- ---------
TRIP        6490   0231           .....  .....
CONT         325   0009           .....  .....
ALTN        1008   0025  GMAD     .....  .....  ....
FINAL       1120   0030           .....  .....
ADDNL          0   0000           .....  .....
TANKERING                  
PLN TOF     8943   0334
DIFF        ....   ....
PLN TOF     ....   ....  (CORRECTED)   
EXTRA          0   ....                  
TOF         8943   ....                 
TAXI         120   ....                  
BLOCK       9063   ....        
--------- --------- --------- --------- --------- --------- ---------
REASON EXTRA FUEL      MATRIX FUEL:
O ECN-ECONAMICAL     O TMP-TEMPORARILY      O ATC-AIR TRAFFIC CNTRL
O FOB-FUEL ON.BOARD  O MSC-MISCELLANEOUS    O FPC-FLIGHT PLN CORR
O WXR-WEATHER        O TEC-TECHNICAL        ACT.CI/CRZ USED: . . .   

--------- --------- --------- --------- --------- --------- ---------

ZFW ZFW 1000 : PLN TOF   XXXXX/TRIP XXXXX 00 MIN HOLD DEST: 0 EXTRA
ZFW ZFW-1000 : PLN TOF   XXXXX/TRIP XXXXX
--------- --------- --------- --------- --------- --------- ---------
COMMANDERS NAME:                           SIGNATURE:

--------- --------- --------- --------- --------- --------- ---------
FROM:  LFRS ELEV90       TO: GMMX ELEV1545       ALTN: GMAD ELEV 253
ATC C/S     : TVF46TVF4606            AVG ISA : M05
CO-ROUTE    :                        AVG TT  :   
FMC-RES FUEL: 2128                   AVG W/C :    0
CRZ ALT     : FL350                  FL310
CI          : CI 36                  FL200     360/000
                                     FL100

LFRS/21  N0455F350 NORM3V NORMI UN867 TEPRA UN873 DESAB UN867
NENEM/N0454F370 UP75 NEA UN864 PIMOS UN869 SLK UB11 PELAX
UN869 MABAP MABA2A GMMX/28

--------- --------- --------- --------- --------- --------- ---------
.
.
--------- --------- --------- --------- --------- --------- ---------
RVSM ALT CHECK:  FL:...... LEFT: ...... STBY: ...... RIGHT: ......

--------- --------- --------- --------- --------- --------- ---------
DESTINATION ALTERNATE GMAD
--------- --------- --------- --------- --------- --------- ---------

--------- --------- --------- --------- --------- --------- ---------
--------- --------- --------- --------- --------- --------- ---------
ALTERNATE SUMMARY
--------- --------- --------- --------- --------- --------- ---------
      ALTN        DIST   LVL       WC TIME  FUEL VIA
      GMAD/27      120  FL190    0 0025  1008 LISR4D LISRA UG850
                                           OLOMA OLOM2A
INFO/GMMN/35R     125  FL200    0 0025  1056 MABA4D MABAP UR722
                                           FOBAC FOBA1A
INFO/GMMI/34       93  FL150    0 0020   832 MAGA4D MAGAV B11 ESS
INFO/GMMZ/30       85  FL170    0 0019   830 MAK DCT OZT
--------- --------- --------- --------- --------- --------- ---------

-(FPL-TVF4606-IS
-B738/M-SDFGHIRWXY/LB1
-LFRS1233
-N0455F350 NORMI UN867 TEPRA UN873 DESAB UN867 NENEM/N0454F370 UP75 NEA UN864 PIMOS UN869 SLK UB11 PELAX UN869 MABAP
-GMMX0231 GMAD
-EET/LFFF0009 LECM0032 GMMM0139 PBN/A1B1D1O1S1 DOF/201226 REG/FGZHF SEL/BMEF CODE/4841A5 OPR/TVF RVR/200 RMK/TCAS CALLSIGN FRANCE SOLEIL)

WEATHER BRIEFING - GENERATED 26 DEC 2020 12:18 UTC
--------------------------------------------------------------------------------

LFRS GMMX GMAD GMMN GMMI GMMZ

--------------------------------------------------------------------------------
ORIGIN: LFRS (NANTES)
--------------------------------------------------------------------------------
LFRS 261200Z AUTO 20007KT 9999 BKN038 OVC052 08/03 Q1029 NOSIG

LFRS 261100Z 2612/2718 22006KT 9999 BKN040
      BECMG 2615/2617 -RA
      BECMG 2621/2623 22015G25KT
      BECMG 2623/2701 22020G30KT
      BECMG 2705/2707 22025G40KT
      TEMPO 2708/2714 2000 RA OVC009 PROB30
      TEMPO 2709/2712 22030G50KT
      BECMG 2712/2714 27015KT NSW
      TEMPO 2714/2718 4000 SHRA BKN020TCU


--------------------------------------------------------------------------------
DESTINATION: GMMX (MARRAKECH)
--------------------------------------------------------------------------------
GMMX 261200Z 11003KT CAVOK 21/05 Q1019 NOSIG

GMMX 261100Z 2612/2718 02006KT 8000 SCT100


--------------------------------------------------------------------------------
ALTERNATE: GMAD (AGADIR)
--------------------------------------------------------------------------------
GMAD 261200Z 07008KT 030V090 CAVOK 22/03 Q1017 NOSIG

GMAD 261100Z 2612/2718 08008KT CAVOK=  GMFF 261100Z 2612/2718 04012KT CAVOK
      BECMG 2618/2620 10006KT


--------------------------------------------------------------------------------
ALTERNATE: GMMN (CASABLANCA)
--------------------------------------------------------------------------------
GMMN 261200Z 01004KT 350V110 CAVOK 16/14 Q1021 NOSIG

GMMN 261100Z 2612/2718 18004KT CAVOK
      BECMG 2612/2614 36010KT
      BECMG 2620/2624 06005KT 4000 BR SCT010
      TEMPO 2700/2709 0400 FG BKN002
      BECMG 2709/2712 34010KT CAVOK


--------------------------------------------------------------------------------
ALTERNATE: GMMI (ESSAOUIRA)
--------------------------------------------------------------------------------
GMMI 261200Z AUTO VRB03KT //// ////// 25/04 Q1018 NOSIG

GMMI 261100Z 2612/2718 VRB02KT 8000 NSC=  GMMW 261100Z 2612/2718 06008KT CAVOK


--------------------------------------------------------------------------------
ALTERNATE: GMMZ (OUARZAZATE)
--------------------------------------------------------------------------------
GMMZ 261200Z VRB01KT CAVOK 12/M05 Q1023 NOSIG

GMMZ 261100Z 2612/2718 VRB02KT CAVOK


NOTAM BRIEFING - GENERATED 26 DEC 2020 12:18 UTC
--------------------------------------------------------------------------------

LFRS GMMX GMAD GMAD GMMN GMMI GMMZ

--------------------------------------------------------------------------------
GLOBAL TRANSAVIA.COM VIRTUAL NOTAMS
--------------------------------------------------------------------------------
REF:NIL PLEASE CONTACT OPERATIONS IN CASE OF STRUCTURAL FLIGHTPLAN ERRORS ON FLIGHT-OPS@TRANSAVIA-VIRTUAL.COM
VALID:UFN

REF:NIL
PLEASE CHECK ACARS EVERY 10 MINUTES WHEN FLYING WITH SOUND OFF. AN NEW ACARS MESSAGE PRODUCE A SOUND SIGNAL UNTILL ITS READ. FLOWCONTROL DON'T RECEIVE MUCH REACTION ON OUTGOING ACARS MESSAGES ACCORDING FLIGHTSTATUS.
SOURCE: SPL/HV/OCC/
END VALID: UFN

REF:NIL
PLEASE CONTACT FLOWCONTROL IN CASE OF PROBLEMS WITH ROUTINGS
SOURCE: SPL/HV/OCC/
END VALID: UFN

REF:NIL
IN CASE OF ENGINE-OUT FLY V2 OR V2 20 MAX. UNTIL ABOVE MSA.
LEVEL-OFF AT AN ALTITUDE ROUNDED OFF TO THE FIRST 1000 FT OF THE HIGHEST MSA.
E.G: MSA EHAM; 1.7 AND 2.3 LEVEL-OFF 3000 FT. AFTER LANDING MAKE A REP TO OCC ON 131.975
SOURCE:SPL/HV/OCC
END VALID:UFN



flightlog:
Pilot : Luis Ferraz
Flight: TVF4606
From  : LFRS Nantes
To    : GMMX Marrakech

[FLIGHTLOG] 1.5.4
26-12-2020 12:24:26z, logging started
26-12-2020 12:29:48z, parking brake released
26-12-2020 12:30:43z, flaps set to 13%
26-12-2020 12:30:51z, flaps set to 25%
26-12-2020 12:30:54z, flaps set to 38%
26-12-2020 12:32:48z, take-off at 178 KIAS
26-12-2020 12:32:48z, pos report: 178 KIAS, 00 113 ft, heading 207, winds 200 @ 07 kts
26-12-2020 12:32:48z, flying OFFLINE
26-12-2020 12:32:48z, position: LFRS - Nantes
26-12-2020 12:32:50z, retracted gear at 186 KIAS and 90 ft AGL
26-12-2020 12:34:07z, flaps set to 25%
26-12-2020 12:34:12z, flaps set to 13%
26-12-2020 12:34:19z, flaps set to 0%
26-12-2020 12:39:26z, pos report: 299 KIAS, 20 648 ft, heading 210, winds 002 @ 18 kts
26-12-2020 12:54:27z, pos report: 266 KIAS, 35 536 ft, heading 187, winds 337 @ 51 kts
26-12-2020 13:09:28z, pos report: 266 KIAS, 35 543 ft, heading 205, winds 321 @ 57 kts
26-12-2020 13:24:28z, pos report: 266 KIAS, 35 425 ft, heading 188, winds 324 @ 44 kts
26-12-2020 13:39:29z, pos report: 266 KIAS, 35 457 ft, heading 190, winds 341 @ 24 kts
26-12-2020 13:54:30z, pos report: 266 KIAS, 35 365 ft, heading 188, winds 045 @ 13 kts
26-12-2020 14:09:31z, pos report: 266 KIAS, 35 265 ft, heading 214, winds 103 @ 15 kts
26-12-2020 14:24:32z, pos report: 266 KIAS, 35 146 ft, heading 217, winds 271 @ 12 kts
26-12-2020 14:39:33z, pos report: 272 KIAS, 28 891 ft, heading 212, winds 258 @ 21 kts
26-12-2020 14:43:51z, deployed spoilers
26-12-2020 14:52:51z, flaps set to 13%
26-12-2020 14:52:59z, flaps set to 25%
26-12-2020 14:53:03z, flaps set to 38%
26-12-2020 14:54:34z, pos report: 196 KIAS, 07 689 ft, heading 092, winds 009 @ 02 kts
26-12-2020 14:54:45z, flaps set to 50%
26-12-2020 14:54:48z, lowered gear at 193 KIAS and 6188 ft AGL
26-12-2020 14:54:51z, flaps set to 75%
26-12-2020 14:54:54z, flaps set to 87%
26-12-2020 14:55:21z, flaps set to 100%
26-12-2020 14:56:10z, retracted spoilers
26-12-2020 14:56:36z, on glideslope
26-12-2020 15:02:24z, touchdown: -176ft/m at 121 KIAS
26-12-2020 15:02:24z, pos report: 121 KIAS, 01 543 ft, heading 095, winds 032 @ 03 kts
26-12-2020 15:02:24z, flying OFFLINE
26-12-2020 15:02:24z, position: GMMX - Marrakech
26-12-2020 15:02:25z, deployed spoilers
26-12-2020 15:02:38z, retracted spoilers
26-12-2020 15:03:00z, flaps set to 87%
26-12-2020 15:03:05z, flaps set to 75%
26-12-2020 15:03:09z, flaps set to 62%
26-12-2020 15:03:11z, flaps set to 50%
26-12-2020 15:03:15z, flaps set to 38%
26-12-2020 15:03:19z, flaps set to 25%
26-12-2020 15:03:23z, flaps set to 13%
26-12-2020 15:03:30z, flaps set to 0%
26-12-2020 15:04:03z, parking brake set
26-12-2020 15:04:15z, logging ended
26-12-2020 15:04:15z, this flight was flown offline

©2009-2022, transavia virtual. All rights reserved. This website is only meant for simulation purposes.
This website is not owned by transavia, nor is transavia responsible for the content of this website.